Pilar de la Horadada, Spain
Current Conditions -  °F | °C
As of 4:00 PM on Saturday 20 Dec 2014 (Local Time) from LELC Reporting Station
Broken Clouds Broken Clouds  
Wind Chill: 61°   Ceiling: 2000
Heat Index: 61°   Visibility: 6mi
Dew Point: 54°   Wind: 6mph
Humidity: 77%   Direction: 80°E
Pressure: 30.42"   Gusts: NA
Location:  37.87°N, 0.79°W
Report Text: LELC 201500Z 08005KT 030V120 9999 BKN020 16/12 Q1030 NOSIG
Loading
Personal Weather Stations






























Interactive Weather Map New forecast layout! Learn more

10-Day Weather Forecast

Advertisements
Track Severe Weather on mobile